createdAt,value
2023-08-17T00:01:59.153Z,100829.75
2023-08-17T00:05:03.029Z,100823.94
2023-08-17T00:08:07.090Z,100825.25
2023-08-17T00:11:10.356Z,100823.28
2023-08-17T00:14:13.976Z,100825.03
2023-08-17T00:17:16.756Z,100817.75
2023-08-17T00:20:20.445Z,100814.69
2023-08-17T00:23:24.272Z,100806.81
2023-08-17T00:26:27.304Z,100822.47
2023-08-17T00:29:30.702Z,100807.94
2023-08-17T00:32:33.633Z,100808.91
2023-08-17T00:35:36.544Z,100802.63
2023-08-17T00:38:39.449Z,100795.75
2023-08-17T00:41:42.510Z,100801.78
2023-08-17T00:44:46.077Z,100802.69
2023-08-17T00:47:49.610Z,100804.13
2023-08-17T00:50:54.653Z,100810.13
2023-08-17T00:54:00.754Z,100816.09
2023-08-17T00:57:07.878Z,100814.38
2023-08-17T01:00:16.376Z,100810.06
2023-08-17T01:03:24.615Z,100817.69
2023-08-17T01:06:27.667Z,100822.06
2023-08-17T01:09:33.669Z,100814.88
2023-08-17T01:13:06.657Z,100816.72
2023-08-17T01:16:16.153Z,100822.72
2023-08-17T01:19:27.251Z,100822.56
2023-08-17T01:22:32.117Z,100833.63
2023-08-17T01:25:38.138Z,100832.69
2023-08-17T01:28:40.951Z,100829.84
2023-08-17T01:31:55.316Z,100833.97
2023-08-17T01:35:08.837Z,100831.88
2023-08-17T01:38:17.828Z,100822.66
2023-08-17T01:41:23.786Z,100820.22
2023-08-17T01:44:27.305Z,100834.66
2023-08-17T01:47:31.831Z,100821.09
2023-08-17T01:50:34.742Z,100817.72
2023-08-17T01:53:37.748Z,100822.22
2023-08-17T01:56:41.036Z,100821.31
2023-08-17T01:59:45.021Z,100813.44
2023-08-17T02:02:48.046Z,100815.72
2023-08-17T02:05:51.633Z,100815.59
2023-08-17T02:08:54.534Z,100819.59
2023-08-17T02:12:00.049Z,100827.47
2023-08-17T02:15:03.500Z,100828.63
2023-08-17T02:18:06.461Z,100817.81
2023-08-17T02:21:10.601Z,100814.00
2023-08-17T02:24:16.235Z,100805.75
2023-08-17T02:27:19.133Z,100806.34
2023-08-17T02:30:22.152Z,100808.16
2023-08-17T02:33:25.761Z,100817.09
2023-08-17T02:36:28.854Z,100821.75
2023-08-17T02:39:32.762Z,100823.28
2023-08-17T02:42:35.767Z,100816.66
2023-08-17T02:45:38.608Z,100820.81
2023-08-17T02:48:42.307Z,100817.75
2023-08-17T02:51:45.588Z,100818.06
2023-08-17T02:54:48.641Z,100813.56
2023-08-17T02:57:52.148Z,100810.56
2023-08-17T03:00:55.592Z,100809.44
2023-08-17T03:03:59.175Z,100805.44
2023-08-17T03:07:02.895Z,100807.31
2023-08-17T03:10:07.126Z,100800.50
2023-08-17T03:13:10.077Z,100811.41
2023-08-17T03:16:13.020Z,100808.28
2023-08-17T03:19:16.740Z,100798.59
2023-08-17T03:22:21.276Z,100806.50
2023-08-17T03:25:25.012Z,100800.44
2023-08-17T03:28:28.733Z,100801.88
2023-08-17T03:31:32.718Z,100795.91
2023-08-17T03:34:38.481Z,100793.59
2023-08-17T03:37:43.727Z,100791.53
2023-08-17T03:40:50.800Z,100798.69
2023-08-17T03:43:54.725Z,100797.47
2023-08-17T03:46:58.223Z,100798.03
2023-08-17T03:50:01.084Z,100793.41
2023-08-17T03:53:04.196Z,100799.84
2023-08-17T03:56:07.187Z,100795.31
2023-08-17T03:59:10.694Z,100794.34
2023-08-17T04:02:14.254Z,100794.69
2023-08-17T04:05:18.409Z,100794.75
2023-08-17T04:08:21.384Z,100801.63
2023-08-17T04:11:24.379Z,100799.19
2023-08-17T04:14:28.272Z,100792.25
2023-08-17T04:17:32.399Z,100801.22
2023-08-17T04:20:36.258Z,100803.66
2023-08-17T04:23:40.483Z,100815.66
2023-08-17T04:26:43.410Z,100820.16
2023-08-17T04:29:47.216Z,100822.09
2023-08-17T04:32:53.834Z,100821.31
2023-08-17T04:35:57.199Z,100821.69
2023-08-17T04:39:00.401Z,100816.44
2023-08-17T04:42:05.212Z,100823.16
2023-08-17T04:45:11.034Z,100818.19
2023-08-17T04:48:17.481Z,100823.06
2023-08-17T04:51:23.231Z,100825.06
2023-08-17T04:54:26.826Z,100833.25
2023-08-17T04:57:30.580Z,100825.06
2023-08-17T05:00:34.796Z,100820.97
2023-08-17T05:03:39.424Z,100821.81
2023-08-17T05:06:44.270Z,100827.50
2023-08-17T05:09:48.436Z,100823.06
2023-08-17T05:12:51.478Z,100823.53
2023-08-17T05:15:55.440Z,100829.88
2023-08-17T05:19:00.690Z,100830.13
2023-08-17T05:22:05.409Z,100831.78
2023-08-17T05:25:09.253Z,100831.16
2023-08-17T05:28:18.023Z,100834.03
2023-08-17T05:31:22.213Z,100827.16
2023-08-17T05:34:27.422Z,100839.06
2023-08-17T05:37:31.356Z,100830.19
2023-08-17T05:40:34.483Z,100823.06
2023-08-17T05:43:38.040Z,100831.25
2023-08-17T05:46:42.077Z,100826.06
2023-08-17T05:49:45.256Z,100833.78
2023-08-17T05:52:48.190Z,100831.28
2023-08-17T05:55:51.209Z,100831.38
2023-08-17T05:58:54.201Z,100829.91
2023-08-17T06:01:57.144Z,100831.56
2023-08-17T06:05:00.808Z,100829.66
2023-08-17T06:08:04.667Z,100821.19
2023-08-17T06:11:08.119Z,100821.28
2023-08-17T06:14:12.072Z,100822.31
2023-08-17T06:17:15.815Z,100830.53
2023-08-17T06:20:19.811Z,100817.84
2023-08-17T06:23:26.536Z,100825.50
2023-08-17T06:26:30.165Z,100816.75
2023-08-17T06:29:33.107Z,100812.34
2023-08-17T06:32:36.112Z,100810.13
2023-08-17T06:35:38.931Z,100813.97
2023-08-17T06:38:43.571Z,100816.44
2023-08-17T06:41:47.338Z,100805.53
2023-08-17T06:44:51.096Z,100799.69
2023-08-17T06:47:55.132Z,100804.25
2023-08-17T06:50:58.116Z,100792.03
2023-08-17T06:54:01.249Z,100790.50
2023-08-17T06:57:04.378Z,100797.72
2023-08-17T07:00:08.973Z,100809.78
2023-08-17T07:03:14.772Z,100807.84
2023-08-17T07:06:19.105Z,100801.94
2023-08-17T07:09:22.363Z,100795.56
2023-08-17T07:12:25.540Z,100799.91
2023-08-17T07:15:28.436Z,100805.03
2023-08-17T07:18:32.065Z,100810.63
2023-08-17T07:21:35.490Z,100813.81
2023-08-17T07:24:39.405Z,100814.97
2023-08-17T07:27:43.443Z,100814.06
2023-08-17T07:30:46.636Z,100819.56
2023-08-17T07:33:49.965Z,100814.94
2023-08-17T07:36:52.961Z,100810.69
2023-08-17T07:39:56.040Z,100810.75
2023-08-17T07:42:58.979Z,100813.88
2023-08-17T07:46:01.986Z,100811.81
2023-08-17T07:49:06.063Z,100814.31
2023-08-17T07:52:11.781Z,100814.78
2023-08-17T07:55:15.690Z,100812.94
2023-08-17T07:58:18.646Z,100809.78
2023-08-17T08:01:22.176Z,100816.59
2023-08-17T08:04:25.329Z,100806.66
2023-08-17T08:07:28.503Z,100803.00
2023-08-17T08:10:31.764Z,100804.66
2023-08-17T08:13:34.696Z,100803.94
2023-08-17T08:16:38.103Z,100805.47
2023-08-17T08:19:40.968Z,100803.91
2023-08-17T08:22:44.785Z,100806.72
2023-08-17T08:25:48.720Z,100805.53
2023-08-17T08:28:52.175Z,100792.78
2023-08-17T08:31:55.092Z,100780.44
2023-08-17T08:34:58.738Z,100786.44
2023-08-17T08:38:02.223Z,100794.00
2023-08-17T08:41:06.687Z,100793.19
2023-08-17T08:44:09.809Z,100783.13
2023-08-17T08:47:14.728Z,100792.00
2023-08-17T08:50:23.374Z,100786.44
2023-08-17T08:53:36.770Z,100784.81
2023-08-17T08:59:50.935Z,100792.00
2023-08-17T09:02:55.395Z,100784.03
2023-08-17T09:05:59.239Z,100783.63
2023-08-17T09:09:03.871Z,100784.44
2023-08-17T09:12:11.015Z,100788.41
2023-08-17T09:15:14.064Z,100788.41
2023-08-17T09:18:18.857Z,100784.84
2023-08-17T09:21:24.653Z,100781.66
2023-08-17T09:24:38.258Z,100772.91
2023-08-17T09:27:42.697Z,100771.28
2023-08-17T09:31:05.022Z,100774.50
2023-08-17T09:34:10.617Z,100757.78
2023-08-17T09:37:14.795Z,100774.50
2023-08-17T09:40:22.380Z,100774.03
2023-08-17T09:43:30.282Z,100763.63
2023-08-17T09:46:34.548Z,100761.56
2023-08-17T09:49:37.549Z,100755.59
2023-08-17T09:52:41.183Z,100752.44
2023-08-17T09:55:45.911Z,100748.06
2023-08-17T09:58:49.897Z,100744.97
2023-08-17T10:01:57.026Z,100738.75
2023-08-17T10:05:01.760Z,100746.78
2023-08-17T10:08:08.009Z,100739.00
2023-08-17T10:11:13.405Z,100735.63
2023-08-17T10:14:23.325Z,100742.75
2023-08-17T10:17:29.402Z,100732.84
2023-08-17T10:20:35.640Z,100742.72
2023-08-17T10:23:42.778Z,100740.13
2023-08-17T10:26:47.487Z,100746.41
2023-08-17T10:29:53.318Z,100741.00
2023-08-17T10:32:57.921Z,100748.22
2023-08-17T10:36:02.569Z,100738.88
2023-08-17T10:39:27.005Z,100741.59
2023-08-17T10:42:37.909Z,100745.59
2023-08-17T10:45:41.460Z,100743.22
2023-08-17T10:48:45.616Z,100740.16
2023-08-17T10:52:03.672Z,100744.91
2023-08-17T10:55:11.421Z,100744.84
2023-08-17T10:58:16.175Z,100742.47
2023-08-17T11:01:38.096Z,100744.84
2023-08-17T11:04:42.002Z,100744.00
2023-08-17T11:07:46.196Z,100750.59
2023-08-17T11:11:08.230Z,100748.63
2023-08-17T11:14:11.335Z,100743.97
2023-08-17T11:17:14.906Z,100743.28
2023-08-17T11:20:18.066Z,100740.81
2023-08-17T11:23:26.058Z,100740.06
2023-08-17T11:26:35.482Z,100743.25
2023-08-17T11:32:53.788Z,100738.06
2023-08-17T11:36:03.216Z,100734.88
2023-08-17T11:39:10.462Z,100730.94
2023-08-17T11:42:20.166Z,100733.34
2023-08-17T11:45:27.593Z,100727.00
2023-08-17T11:48:36.681Z,100734.34
2023-08-17T11:51:43.131Z,100732.69
2023-08-17T11:54:46.915Z,100732.56
2023-08-17T11:57:55.950Z,100725.38
2023-08-17T12:00:59.001Z,100728.59
2023-08-17T12:04:06.043Z,100730.72
2023-08-17T12:07:11.024Z,100716.16
2023-08-17T12:10:14.533Z,100718.06
2023-08-17T12:13:17.541Z,100716.06
2023-08-17T12:16:22.289Z,100712.03
2023-08-17T12:19:28.830Z,100715.25
2023-08-17T12:22:31.832Z,100705.38
2023-08-17T12:25:35.558Z,100708.63
2023-08-17T12:28:41.521Z,100706.78
2023-08-17T12:31:45.795Z,100709.13
2023-08-17T12:34:49.688Z,100708.84
2023-08-17T12:37:55.124Z,100701.41
2023-08-17T12:41:00.002Z,100698.00
2023-08-17T12:44:03.619Z,100691.38
2023-08-17T12:47:07.588Z,100685.72
2023-08-17T12:50:11.528Z,100684.47
2023-08-17T12:53:14.433Z,100678.97
2023-08-17T12:56:17.598Z,100667.78
2023-08-17T12:59:21.069Z,100667.16
2023-08-17T13:02:25.259Z,100665.00
2023-08-17T13:05:30.177Z,100662.94
2023-08-17T13:08:33.272Z,100652.97
2023-08-17T13:11:37.141Z,100649.25
2023-08-17T13:14:40.498Z,100646.78
2023-08-17T13:17:47.337Z,100645.75
2023-08-17T13:20:50.380Z,100644.63
2023-08-17T13:23:53.279Z,100645.44
2023-08-17T13:26:58.777Z,100642.47
2023-08-17T13:30:02.820Z,100649.16
2023-08-17T13:33:07.674Z,100640.75
2023-08-17T13:36:10.694Z,100645.56
2023-08-17T13:39:14.639Z,100638.09
2023-08-17T13:42:18.561Z,100640.84
2023-08-17T13:45:22.308Z,100636.16
2023-08-17T13:48:26.075Z,100634.78
2023-08-17T13:51:29.740Z,100629.44
2023-08-17T13:54:33.626Z,100626.38
2023-08-17T13:57:37.391Z,100636.53
2023-08-17T14:00:40.374Z,100635.84
2023-08-17T14:03:44.556Z,100630.63
2023-08-17T14:06:48.205Z,100629.25
2023-08-17T14:10:05.525Z,100629.88
2023-08-17T14:13:11.002Z,100633.91
2023-08-17T14:16:14.734Z,100644.66
2023-08-17T14:19:18.570Z,100643.19
2023-08-17T14:22:21.416Z,100649.78
2023-08-17T14:25:24.483Z,100640.59
2023-08-17T14:28:27.898Z,100631.59
2023-08-17T14:31:31.624Z,100628.84
2023-08-17T14:34:34.923Z,100631.19
2023-08-17T14:37:38.721Z,100634.44
2023-08-17T14:40:46.279Z,100638.47
2023-08-17T14:43:51.379Z,100640.06
2023-08-17T14:46:54.256Z,100641.66
2023-08-17T14:49:57.322Z,100634.00
2023-08-17T14:53:00.321Z,100631.28
2023-08-17T14:56:03.338Z,100630.88
2023-08-17T14:59:10.447Z,100642.19
2023-08-17T15:02:15.183Z,100627.81
2023-08-17T15:05:18.231Z,100630.34
2023-08-17T15:08:21.358Z,100619.69
2023-08-17T15:11:24.643Z,100622.16
2023-08-17T15:14:27.754Z,100620.97
2023-08-17T15:17:30.671Z,100619.44
2023-08-17T15:20:33.736Z,100628.56
2023-08-17T15:23:37.335Z,100626.59
2023-08-17T15:26:40.853Z,100624.19
2023-08-17T15:29:43.910Z,100621.81
2023-08-17T15:32:47.972Z,100626.59
2023-08-17T15:35:51.750Z,100620.63
2023-08-17T15:38:55.200Z,100625.78
2023-08-17T15:41:59.494Z,100626.59
2023-08-17T15:45:02.515Z,100622.59
2023-08-17T15:48:05.619Z,100632.13
2023-08-17T15:51:08.571Z,100621.41
2023-08-17T15:54:14.382Z,100628.97
2023-08-17T15:57:19.695Z,100616.63
2023-08-17T16:00:23.714Z,100622.16
2023-08-17T16:03:27.313Z,100630.56
2023-08-17T16:06:30.821Z,100621.41
2023-08-17T16:09:33.874Z,100627.00
2023-08-17T16:12:42.924Z,100625.00
2023-08-17T16:15:53.154Z,100634.13
2023-08-17T16:18:56.283Z,100627.38
2023-08-17T16:21:59.353Z,100630.56
2023-08-17T16:25:02.968Z,100632.94
2023-08-17T16:28:08.963Z,100622.19
2023-08-17T16:31:14.160Z,100635.31
2023-08-17T16:34:19.913Z,100632.94
2023-08-17T16:37:23.041Z,100630.94
2023-08-17T16:40:37.872Z,100635.31
2023-08-17T16:43:42.074Z,100633.75
2023-08-17T16:46:45.900Z,100624.59
2023-08-17T16:49:48.840Z,100627.00
2023-08-17T16:52:51.822Z,100629.75
2023-08-17T16:55:55.837Z,100632.53
2023-08-17T16:59:02.021Z,100632.53
2023-08-17T17:02:07.015Z,100628.56
2023-08-17T17:05:10.418Z,100630.94
2023-08-17T17:08:13.371Z,100623.78
2023-08-17T17:11:16.340Z,100632.50
2023-08-17T17:14:19.563Z,100630.53
2023-08-17T17:17:22.642Z,100640.78
2023-08-17T17:20:25.718Z,100643.50
2023-08-17T17:23:28.716Z,100639.94
2023-08-17T17:26:31.603Z,100640.72
2023-08-17T17:29:35.451Z,100636.75
2023-08-17T17:32:38.526Z,100638.31
2023-08-17T17:35:42.418Z,100635.50
2023-08-17T17:38:46.083Z,100648.19
2023-08-17T17:41:49.251Z,100650.56
2023-08-17T17:44:52.292Z,100646.06
2023-08-17T17:47:55.948Z,100656.03
2023-08-17T17:50:58.860Z,100654.38
2023-08-17T17:54:01.778Z,100654.00
2023-08-17T17:57:06.072Z,100654.78
2023-08-17T18:00:11.399Z,100650.84
2023-08-17T18:03:19.706Z,100650.06
2023-08-17T18:06:23.715Z,100655.53
2023-08-17T18:09:27.751Z,100655.84
2023-08-17T18:12:31.677Z,100661.06
2023-08-17T18:15:36.686Z,100657.78
2023-08-17T18:18:40.000Z,100659.72
2023-08-17T18:21:43.457Z,100659.72
2023-08-17T18:24:46.724Z,100664.00
2023-08-17T18:27:49.971Z,100664.84
2023-08-17T18:30:53.720Z,100661.63
2023-08-17T18:33:57.708Z,100664.06
2023-08-17T18:37:03.865Z,100676.00
2023-08-17T18:40:08.092Z,100679.06
2023-08-17T18:43:12.061Z,100686.91
2023-08-17T18:46:15.292Z,100688.06
2023-08-17T18:49:18.304Z,100687.28
2023-08-17T18:52:21.183Z,100691.94
2023-08-17T18:55:24.841Z,100695.09
2023-08-17T18:58:28.484Z,100694.75
2023-08-17T19:01:32.658Z,100689.94
2023-08-17T19:04:36.748Z,100692.44
2023-08-17T19:07:40.676Z,100694.84
2023-08-17T19:10:43.657Z,100694.84
2023-08-17T19:13:46.564Z,100700.00
2023-08-17T19:16:49.921Z,100687.78
2023-08-17T19:19:53.326Z,100690.88
2023-08-17T19:22:57.131Z,100693.66
2023-08-17T19:26:00.713Z,100692.41
2023-08-17T19:29:04.040Z,100689.66
2023-08-17T19:32:07.686Z,100691.25
2023-08-17T19:35:11.188Z,100680.13
2023-08-17T19:38:15.416Z,100689.66
2023-08-17T19:41:19.146Z,100685.75
2023-08-17T19:44:22.628Z,100690.88
2023-08-17T19:47:25.666Z,100686.91
2023-08-17T19:50:29.796Z,100684.50
2023-08-17T19:53:32.747Z,100696.78
2023-08-17T19:56:36.549Z,100689.16
2023-08-17T19:59:40.248Z,100691.09
2023-08-17T20:02:44.201Z,100689.06
2023-08-17T20:05:48.338Z,100695.00
2023-08-17T20:08:51.624Z,100695.78
2023-08-17T20:11:56.023Z,100701.28
2023-08-17T20:15:00.182Z,100698.09
2023-08-17T20:18:03.577Z,100689.41
2023-08-17T20:21:07.460Z,100696.56
2023-08-17T20:24:11.240Z,100691.78
2023-08-17T20:27:15.198Z,100693.78
2023-08-17T20:30:18.756Z,100698.16
2023-08-17T20:33:23.704Z,100690.63
2023-08-17T20:36:27.286Z,100702.91
2023-08-17T20:39:31.175Z,100697.75
2023-08-17T20:42:34.027Z,100710.25
2023-08-17T20:45:41.598Z,100702.66
2023-08-17T20:48:44.608Z,100710.00
2023-08-17T20:51:49.370Z,100704.56
2023-08-17T20:54:53.280Z,100707.81
2023-08-17T20:57:58.810Z,100701.94
2023-08-17T21:01:01.985Z,100707.59
2023-08-17T21:04:05.921Z,100709.19
2023-08-17T21:07:08.959Z,100710.19
2023-08-17T21:10:12.750Z,100716.34
2023-08-17T21:13:16.215Z,100706.25
2023-08-17T21:16:19.116Z,100718.31
2023-08-17T21:19:22.041Z,100718.81
2023-08-17T21:22:26.534Z,100725.56
2023-08-17T21:25:30.301Z,100718.22
2023-08-17T21:28:33.242Z,100724.25
2023-08-17T21:31:36.359Z,100721.78
2023-08-17T21:34:39.885Z,100721.31
2023-08-17T21:37:44.373Z,100720.13
2023-08-17T21:40:47.500Z,100723.25
2023-08-17T21:43:53.396Z,100713.34
2023-08-17T21:46:57.865Z,100717.72
2023-08-17T21:50:01.328Z,100726.03
2023-08-17T21:53:04.418Z,100721.75
2023-08-17T21:56:07.289Z,100721.97
2023-08-17T21:59:10.292Z,100720.38
2023-08-17T22:02:13.183Z,100716.34
2023-08-17T22:05:16.173Z,100712.50
2023-08-17T22:08:19.870Z,100711.81
2023-08-17T22:11:23.480Z,100713.78
2023-08-17T22:14:27.361Z,100711.75
2023-08-17T22:17:31.253Z,100706.25
2023-08-17T22:20:36.027Z,100705.03
2023-08-17T22:23:39.092Z,100706.25
2023-08-17T22:26:42.795Z,100712.25
2023-08-17T22:29:45.803Z,100714.88
2023-08-17T22:32:49.369Z,100709.31
2023-08-17T22:35:52.871Z,100709.06
2023-08-17T22:38:55.766Z,100711.41
2023-08-17T22:41:58.890Z,100712.59
2023-08-17T22:45:01.663Z,100705.03
2023-08-17T22:48:05.674Z,100704.94
2023-08-17T22:51:10.455Z,100720.75
2023-08-17T22:54:14.086Z,100717.25
2023-08-17T22:57:17.387Z,100713.31
2023-08-17T23:00:20.681Z,100712.47
2023-08-17T23:03:23.791Z,100711.75
2023-08-17T23:06:27.534Z,100712.50
2023-08-17T23:09:30.330Z,100713.34
2023-08-17T23:12:33.860Z,100710.16
2023-08-17T23:15:36.645Z,100703.81
2023-08-17T23:18:39.579Z,100713.72
2023-08-17T23:21:42.428Z,100708.53
2023-08-17T23:24:46.088Z,100711.38
2023-08-17T23:27:48.942Z,100698.25
2023-08-17T23:30:52.219Z,100709.97
2023-08-17T23:33:55.092Z,100713.25
2023-08-17T23:36:58.843Z,100716.50
2023-08-17T23:40:01.772Z,100710.53
2023-08-17T23:43:05.451Z,100704.19
2023-08-17T23:46:09.478Z,100714.72
2023-08-17T23:49:12.783Z,100710.28
2023-08-17T23:52:15.667Z,100709.75
2023-08-17T23:55:19.599Z,100718.00
2023-08-17T23:58:23.767Z,100712.38
